EST,Max TemperatureF,Mean TemperatureF,Min TemperatureF,Max Dew PointF,MeanDew PointF,Min DewpointF,Max Humidity, Mean Humidity, Min Humidity, Max Sea Level PressureIn, Mean Sea Level PressureIn, Min Sea Level PressureIn, Max VisibilityMiles, Mean VisibilityMiles, Min VisibilityMiles, Max Wind SpeedMPH, Mean Wind SpeedMPH, Max Gust SpeedMPH,PrecipitationIn, CloudCover, Events, WindDirDegrees
2012-12-1,66,49,32,47,38,30,100,72,43,30.43,30.39,30.35,10,6,0,8,1,10,0.00,0,Fog,114
2012-12-2,68,52,36,50,41,34,92,71,49,30.43,30.37,30.30,10,6,0,8,2,10,0.00,1,Fog,175
2012-12-3,76,65,54,58,55,51,93,70,46,30.32,30.29,30.24,10,10,6,13,5,17,0.00,0,Fog,237
2012-12-4,76,61,45,59,51,44,100,75,50,30.36,30.29,30.22,10,6,0,12,4,15,0.00,2,Fog,207
2012-12-5,75,63,51,57,54,47,93,71,49,30.22,30.17,30.10,10,10,4,21,6,26,0.09,5,Rain,264
2012-12-6,53,50,46,49,41,37,89,72,54,30.32,30.26,30.21,10,10,10,14,9,18,T,8,,43
2012-12-7,66,56,46,63,56,41,100,86,72,30.20,30.08,30.00,10,7,2,9,6,13,0.20,8,Rain,100
2012-12-8,69,61,53,63,59,53,100,84,68,30.09,30.02,29.97,10,6,0,10,4,13,0.01,6,Fog-Rain,242
2012-12-9,76,61,46,62,53,46,100,75,50,30.19,30.12,30.04,10,6,0,13,3,18,0.00,4,Fog,160
2012-12-10,74,68,62,66,63,55,100,84,68,30.01,29.86,29.78,10,9,2,15,7,22,0.13,6,Rain,206
2012-12-11,72,62,51,66,59,48,96,79,61,30.14,29.96,29.78,10,10,9,14,7,17,0.11,6,Rain,265
2012-12-12,52,48,44,50,45,41,96,90,83,30.29,30.22,30.12,10,8,3,18,12,25,0.57,8,Rain,26
2012-12-13,52,48,43,45,43,38,92,83,74,30.33,30.27,30.18,10,8,2,21,11,26,0.60,7,Rain,6
2012-12-14,59,47,34,43,37,34,100,78,55,30.37,30.29,30.25,10,5,0,12,4,15,0.00,0,Fog,9
2012-12-15,59,46,33,50,40,34,100,78,55,30.28,30.22,30.11,10,7,0,8,2,9,T,3,Fog-Rain,68
2012-12-16,61,58,54,61,56,51,100,95,90,30.12,30.03,29.92,10,7,1,10,2,13,0.07,8,Rain,225
2012-12-17,63,60,57,60,58,55,100,92,84,29.92,29.83,29.69,10,8,0,17,4,24,0.34,7,Fog-Rain,253
2012-12-18,66,57,47,56,51,36,100,78,56,29.93,29.75,29.67,10,9,2,18,7,26,0.08,4,Rain,251
2012-12-19,66,51,36,44,38,34,96,67,37,30.14,30.03,29.92,10,10,10,13,4,16,0.00,0,,256
2012-12-20,69,55,40,61,49,40,93,80,67,30.20,30.00,29.59,10,10,6,25,8,35,0.19,2,Rain,122
2012-12-21,67,54,40,64,40,23,87,64,41,29.81,29.62,29.47,10,9,2,21,16,30,0.27,4,Rain,253
2012-12-22,50,43,36,26,24,22,59,46,33,30.11,29.99,29.82,10,10,10,23,10,32,0.00,0,,270
2012-12-23,55,41,27,34,27,18,85,55,24,30.21,30.11,30.07,10,10,10,10,2,14,0.00,0,,226
2012-12-24,64,51,38,47,37,29,86,57,27,30.09,30.02,29.94,10,10,10,14,4,17,0.02,3,Rain,225
2012-12-25,60,50,40,48,45,40,100,80,60,30.15,30.06,29.96,10,10,3,10,4,14,0.00,2,,91
2012-12-26,68,58,48,64,55,42,96,80,64,30.08,29.67,29.45,10,6,1,26,12,37,1.41,7,Rain-Thunderstorm,79
2012-12-27,52,45,38,42,34,31,85,67,48,30.06,29.86,29.64,10,10,10,23,9,30,0.00,1,,282
2012-12-28,48,39,30,36,31,27,92,71,49,30.20,30.12,30.06,10,10,10,8,1,10,0.00,2,,52
2012-12-29,51,47,42,47,43,33,93,82,70,30.01,29.76,29.63,10,7,2,21,8,29,0.85,6,Rain,338
2012-12-30,47,39,31,31,25,21,75,56,37,30.40,30.24,29.93,10,10,10,20,8,28,0.00,0,,293
2012-12-31,54,40,25,39,29,23,85,59,32,30.40,30.31,30.16,10,10,10,15,5,20,0.00,2,,226